Bologna/Guglielmo Marconi Airport

Airport
ICAO code: 
LIPE
IATA Code: 
BLQ
Summary
ICAO Region: 
EUR
Territory: 
Location: 
Borgo Panigale, Emilia-Romagna
Serving: 
Bologna
Elevation: 
123 ft
Coordinates: 
Aerial View: 
44° 31' 51.581" N, 11° 17' 16.245" E
Metar
Observation
LIPE 072120Z VRB02KT CAVOK 01/M03 Q1013
Station
Bologna / Borgo Panigale
Date/Time
2021-12-07 21:20:00
Wind speed
02 kts
Lowest cloud amount
clouds and visibility OK
Temperature
1°C
Dew point
-3°C
Humidity
74%
QNH
1013 hPa
Weather condition
n/a

Bologna Airport or Guglielmo Marconi Airport is an international airport serving the city of Bologna in Italy. It is approximately 6 km northwest of the town center in the Emilia-Romagna region of Italy, about 200 km south-east of Milan.

Climatology

Humid “subtropical” climate (Köppen climate classification Cfa) - characterized by hot, humid summers and cool winters. Significant amounts of precipitation occur in all seasons in most areas. Winter rainfall (and sometimes snowfall) is associated with large storms that the westerlies steer from west to east. Most summer rainfall occurs during thunderstorms.

Runways

Designator Length Width Surface Rops
12/30 2800 46 ASP Yes/Yes
Airport map: 
Aerial View: 

SKYbrary Partners:

Safety knowledge contributed by: